sensor_id;sensor_type;location;lat;lon;timestamp;pressure;altitude;pressure_sealevel;temperature;humidity
78117;BME280;69042;59.120;37.904;2023-07-31T00:01:12;99113.53;;;18.19;68.54
78117;BME280;69042;59.120;37.904;2023-07-31T00:03:39;99109.47;;;18.15;68.16
78117;BME280;69042;59.120;37.904;2023-07-31T00:06:05;99108.81;;;18.13;68.54
78117;BME280;69042;59.120;37.904;2023-07-31T00:08:31;99107.94;;;18.12;68.99
78117;BME280;69042;59.120;37.904;2023-07-31T00:10:58;99107.94;;;18.12;69.13
78117;BME280;69042;59.120;37.904;2023-07-31T00:13:24;99107.94;;;18.12;69.06
78117;BME280;69042;59.120;37.904;2023-07-31T00:15:50;99108.94;;;18.11;69.35
78117;BME280;69042;59.120;37.904;2023-07-31T00:18:17;99114.22;;;18.11;68.84
78117;BME280;69042;59.120;37.904;2023-07-31T00:20:43;99117.81;;;18.10;68.69
78117;BME280;69042;59.120;37.904;2023-07-31T00:23:09;99124.81;;;18.11;69.12
78117;BME280;69042;59.120;37.904;2023-07-31T00:25:35;99124.81;;;18.11;69.15
78117;BME280;69042;59.120;37.904;2023-07-31T00:28:02;99123.28;;;18.08;68.99
78117;BME280;69042;59.120;37.904;2023-07-31T00:30:28;99129.38;;;18.09;69.15
78117;BME280;69042;59.120;37.904;2023-07-31T00:32:55;99123.97;;;18.10;69.45
78117;BME280;69042;59.120;37.904;2023-07-31T00:35:21;99126.75;;;18.09;69.58
78117;BME280;69042;59.120;37.904;2023-07-31T00:37:47;99137.19;;;18.10;69.76
78117;BME280;69042;59.120;37.904;2023-07-31T00:40:14;99144.00;;;18.13;69.48
78117;BME280;69042;59.120;37.904;2023-07-31T00:42:40;99139.69;;;18.12;69.69
78117;BME280;69042;59.120;37.904;2023-07-31T00:45:08;99138.16;;;18.09;69.60
78117;BME280;69042;59.120;37.904;2023-07-31T00:47:34;99147.06;;;18.08;69.77
78117;BME280;69042;59.120;37.904;2023-07-31T00:50:00;99138.56;;;18.05;69.81
78117;BME280;69042;59.120;37.904;2023-07-31T00:52:27;99145.78;;;18.03;69.87
78117;BME280;69042;59.120;37.904;2023-07-31T00:54:55;99148.72;;;18.00;70.12
78117;BME280;69042;59.120;37.904;2023-07-31T00:57:22;99154.13;;;17.98;69.79
78117;BME280;69042;59.120;37.904;2023-07-31T00:59:50;99161.34;;;17.96;70.05
78117;BME280;69042;59.120;37.904;2023-07-31T01:02:17;99164.16;;;17.95;70.08
78117;BME280;69042;59.120;37.904;2023-07-31T01:04:44;99164.41;;;17.92;70.03
78117;BME280;69042;59.120;37.904;2023-07-31T01:07:39;99160.22;;;17.89;70.41
78117;BME280;69042;59.120;37.904;2023-07-31T01:10:15;99157.00;;;17.85;70.60
78117;BME280;69042;59.120;37.904;2023-07-31T01:12:45;99157.00;;;17.85;70.74
78117;BME280;69042;59.120;37.904;2023-07-31T01:15:12;99160.75;;;17.83;70.73
78117;BME280;69042;59.120;37.904;2023-07-31T01:17:42;99160.75;;;17.83;71.00
78117;BME280;69042;59.120;37.904;2023-07-31T01:20:27;99160.75;;;17.83;71.07
78117;BME280;69042;59.120;37.904;2023-07-31T01:28:41;99170.50;;;17.82;71.10
78117;BME280;69042;59.120;37.904;2023-07-31T01:31:12;99153.81;;;17.82;70.83
78117;BME280;69042;59.120;37.904;2023-07-31T01:33:40;99163.38;;;17.83;70.76
78117;BME280;69042;59.120;37.904;2023-07-31T01:36:07;99171.31;;;17.83;71.10
78117;BME280;69042;59.120;37.904;2023-07-31T01:38:34;99170.38;;;17.84;71.20
78117;BME280;69042;59.120;37.904;2023-07-31T01:41:02;99169.13;;;17.88;71.24
78117;BME280;69042;59.120;37.904;2023-07-31T01:43:28;99161.75;;;17.92;71.13
78117;BME280;69042;59.120;37.904;2023-07-31T01:45:54;99162.34;;;17.95;70.87
78117;BME280;69042;59.120;37.904;2023-07-31T01:48:20;99148.84;;;17.98;70.99
78117;BME280;69042;59.120;37.904;2023-07-31T01:50:47;99148.31;;;18.04;71.07
78117;BME280;69042;59.120;37.904;2023-07-31T01:53:13;99153.31;;;18.07;70.87
78117;BME280;69042;59.120;37.904;2023-07-31T01:55:39;99156.41;;;18.13;70.66
78117;BME280;69042;59.120;37.904;2023-07-31T01:58:07;99151.66;;;18.16;70.41
78117;BME280;69042;59.120;37.904;2023-07-31T02:00:33;99156.53;;;18.21;70.51
78117;BME280;69042;59.120;37.904;2023-07-31T02:02:59;99149.31;;;18.23;70.06
78117;BME280;69042;59.120;37.904;2023-07-31T02:05:26;99157.66;;;18.28;70.40
78117;BME280;69042;59.120;37.904;2023-07-31T02:07:52;99157.94;;;18.35;69.88
78117;BME280;69042;59.120;37.904;2023-07-31T02:10:18;99157.53;;;18.39;69.89
78117;BME280;69042;59.120;37.904;2023-07-31T02:12:45;99150.84;;;18.45;69.84
78117;BME280;69042;59.120;37.904;2023-07-31T02:15:11;99152.38;;;18.47;69.77
78117;BME280;69042;59.120;37.904;2023-07-31T02:17:37;99148.38;;;18.53;69.18
78117;BME280;69042;59.120;37.904;2023-07-31T02:20:04;99151.56;;;18.57;69.49
78117;BME280;69042;59.120;37.904;2023-07-31T02:22:31;99156.56;;;18.60;68.92
78117;BME280;69042;59.120;37.904;2023-07-31T02:24:58;99157.13;;;18.63;68.93
78117;BME280;69042;59.120;37.904;2023-07-31T02:27:24;99157.81;;;18.65;69.21
78117;BME280;69042;59.120;37.904;2023-07-31T02:29:53;99161.03;;;18.69;69.24
78117;BME280;69042;59.120;37.904;2023-07-31T02:32:20;99160.03;;;18.70;69.10
78117;BME280;69042;59.120;37.904;2023-07-31T02:34:47;99164.22;;;18.72;68.98
78117;BME280;69042;59.120;37.904;2023-07-31T02:37:13;99155.16;;;18.75;69.20
78117;BME280;69042;59.120;37.904;2023-07-31T02:39:39;99156.59;;;18.79;68.84
78117;BME280;69042;59.120;37.904;2023-07-31T02:42:05;99154.34;;;18.84;68.80
78117;BME280;69042;59.120;37.904;2023-07-31T02:44:32;99145.31;;;18.87;68.78
78117;BME280;69042;59.120;37.904;2023-07-31T02:46:58;99149.31;;;18.91;69.07
78117;BME280;69042;59.120;37.904;2023-07-31T02:49:24;99150.72;;;18.95;69.24
78117;BME280;69042;59.120;37.904;2023-07-31T02:51:51;99134.56;;;18.98;68.59
78117;BME280;69042;59.120;37.904;2023-07-31T02:54:17;99138.03;;;18.99;68.73
78117;BME280;69042;59.120;37.904;2023-07-31T02:56:44;99140.81;;;18.97;69.07
78117;BME280;69042;59.120;37.904;2023-07-31T02:59:10;99141.81;;;18.96;68.66
78117;BME280;69042;59.120;37.904;2023-07-31T03:01:36;99157.84;;;18.95;68.82
78117;BME280;69042;59.120;37.904;2023-07-31T03:04:02;99156.84;;;18.96;68.61
78117;BME280;69042;59.120;37.904;2023-07-31T03:06:29;99142.78;;;18.95;68.72
78117;BME280;69042;59.120;37.904;2023-07-31T03:08:55;99139.16;;;18.96;68.72
78117;BME280;69042;59.120;37.904;2023-07-31T03:11:22;99144.72;;;18.93;69.17
78117;BME280;69042;59.120;37.904;2023-07-31T03:13:48;99138.03;;;18.89;69.00
78117;BME280;69042;59.120;37.904;2023-07-31T03:16:15;99142.81;;;18.85;69.13
78117;BME280;69042;59.120;37.904;2023-07-31T03:18:41;99139.47;;;18.83;69.40
78117;BME280;69042;59.120;37.904;2023-07-31T03:21:07;99146.28;;;18.86;69.17
78117;BME280;69042;59.120;37.904;2023-07-31T03:23:34;99140.84;;;18.87;69.21
78117;BME280;69042;59.120;37.904;2023-07-31T03:26:02;99140.84;;;18.87;68.87
78117;BME280;69042;59.120;37.904;2023-07-31T03:28:29;99140.03;;;18.87;69.22
78117;BME280;69042;59.120;37.904;2023-07-31T03:30:56;99140.97;;;18.86;68.89
78117;BME280;69042;59.120;37.904;2023-07-31T03:33:22;99143.63;;;18.86;69.05
78117;BME280;69042;59.120;37.904;2023-07-31T03:35:49;99141.81;;;18.86;68.49
78117;BME280;69042;59.120;37.904;2023-07-31T03:38:15;99144.19;;;18.89;68.90
78117;BME280;69042;59.120;37.904;2023-07-31T03:40:42;99140.56;;;18.90;68.38
78117;BME280;69042;59.120;37.904;2023-07-31T03:43:08;99143.06;;;18.92;68.86
78117;BME280;69042;59.120;37.904;2023-07-31T03:45:34;99140.44;;;18.92;68.25
78117;BME280;69042;59.120;37.904;2023-07-31T03:48:01;99139.84;;;18.88;68.60
78117;BME280;69042;59.120;37.904;2023-07-31T03:50:27;99137.91;;;18.90;68.44
78117;BME280;69042;59.120;37.904;2023-07-31T03:52:54;99140.69;;;18.89;67.98
78117;BME280;69042;59.120;37.904;2023-07-31T03:55:20;99145.16;;;18.88;68.12
78117;BME280;69042;59.120;37.904;2023-07-31T03:57:47;99148.91;;;18.86;68.47
78117;BME280;69042;59.120;37.904;2023-07-31T04:00:14;99143.50;;;18.87;68.56
78117;BME280;69042;59.120;37.904;2023-07-31T04:02:41;99146.16;;;18.87;68.35
78117;BME280;69042;59.120;37.904;2023-07-31T04:05:07;99147.53;;;18.91;68.41
78117;BME280;69042;59.120;37.904;2023-07-31T04:07:34;99135.66;;;18.96;68.19
78117;BME280;69042;59.120;37.904;2023-07-31T04:10:00;99141.38;;;19.01;68.07
78117;BME280;69042;59.120;37.904;2023-07-31T04:12:26;99145.25;;;19.06;67.66
78117;BME280;69042;59.120;37.904;2023-07-31T04:14:53;99141.22;;;19.12;68.06
78117;BME280;69042;59.120;37.904;2023-07-31T04:17:19;99142.44;;;19.18;67.50
78117;BME280;69042;59.120;37.904;2023-07-31T04:19:45;99143.41;;;19.26;67.74
78117;BME280;69042;59.120;37.904;2023-07-31T04:22:12;99146.88;;;19.37;67.77
78117;BME280;69042;59.120;37.904;2023-07-31T04:24:38;99145.13;;;19.45;67.61
78117;BME280;69042;59.120;37.904;2023-07-31T04:27:05;99149.03;;;19.51;67.07
78117;BME280;69042;59.120;37.904;2023-07-31T04:29:31;99158.06;;;19.58;66.88
78117;BME280;69042;59.120;37.904;2023-07-31T04:31:57;99155.38;;;19.68;66.55
78117;BME280;69042;59.120;37.904;2023-07-31T04:34:23;99156.50;;;19.75;66.84
78117;BME280;69042;59.120;37.904;2023-07-31T04:36:50;99164.16;;;19.78;66.08
78117;BME280;69042;59.120;37.904;2023-07-31T04:39:16;99157.44;;;19.84;66.42
78117;BME280;69042;59.120;37.904;2023-07-31T04:41:42;99158.66;;;19.89;66.06
78117;BME280;69042;59.120;37.904;2023-07-31T04:44:08;99148.31;;;19.96;65.85
78117;BME280;69042;59.120;37.904;2023-07-31T04:46:37;99159.00;;;20.04;65.96
78117;BME280;69042;59.120;37.904;2023-07-31T04:49:03;99152.13;;;20.11;65.80
78117;BME280;69042;59.120;37.904;2023-07-31T04:51:30;99148.72;;;20.19;65.55
78117;BME280;69042;59.120;37.904;2023-07-31T04:53:56;99157.06;;;20.24;65.52
78117;BME280;69042;59.120;37.904;2023-07-31T04:56:23;99157.97;;;20.33;65.28
78117;BME280;69042;59.120;37.904;2023-07-31T04:58:49;99157.91;;;20.43;65.35
78117;BME280;69042;59.120;37.904;2023-07-31T05:01:15;99160.47;;;20.52;64.76
78117;BME280;69042;59.120;37.904;2023-07-31T05:03:41;99158.38;;;20.56;64.86
78117;BME280;69042;59.120;37.904;2023-07-31T05:06:08;99153.47;;;20.61;64.67
78117;BME280;69042;59.120;37.904;2023-07-31T05:08:34;99149.34;;;20.67;64.39
78117;BME280;69042;59.120;37.904;2023-07-31T05:11:00;99159.50;;;20.71;64.05
78117;BME280;69042;59.120;37.904;2023-07-31T05:13:27;99151.09;;;20.76;63.83
78117;BME280;69042;59.120;37.904;2023-07-31T05:15:53;99159.44;;;20.81;63.72
78117;BME280;69042;59.120;37.904;2023-07-31T05:18:20;99153.34;;;20.89;64.24
78117;BME280;69042;59.120;37.904;2023-07-31T05:20:46;99158.06;;;20.95;63.96
78117;BME280;69042;59.120;37.904;2023-07-31T05:23:12;99158.75;;;20.97;63.77
78117;BME280;69042;59.120;37.904;2023-07-31T05:25:39;99160.56;;;20.96;63.45
78117;BME280;69042;59.120;37.904;2023-07-31T05:28:05;99157.06;;;20.96;63.21
78117;BME280;69042;59.120;37.904;2023-07-31T05:30:31;99160.72;;;20.95;63.16
78117;BME280;69042;59.120;37.904;2023-07-31T05:32:58;99169.66;;;20.94;63.21
78117;BME280;69042;59.120;37.904;2023-07-31T05:35:24;99172.31;;;20.94;62.96
78117;BME280;69042;59.120;37.904;2023-07-31T05:37:50;99170.34;;;20.96;63.23
78117;BME280;69042;59.120;37.904;2023-07-31T05:40:17;99169.38;;;20.97;63.14
78117;BME280;69042;59.120;37.904;2023-07-31T05:42:43;99173.66;;;20.98;62.90
78117;BME280;69042;59.120;37.904;2023-07-31T05:45:09;99178.00;;;20.99;62.92
78117;BME280;69042;59.120;37.904;2023-07-31T05:47:36;99183.16;;;21.00;62.92
78117;BME280;69042;59.120;37.904;2023-07-31T05:50:02;99175.03;;;21.02;62.87
78117;BME280;69042;59.120;37.904;2023-07-31T05:52:28;99177.09;;;21.08;63.12
78117;BME280;69042;59.120;37.904;2023-07-31T05:54:55;99173.97;;;21.13;62.92
78117;BME280;69042;59.120;37.904;2023-07-31T05:57:21;99169.47;;;21.13;62.89
78117;BME280;69042;59.120;37.904;2023-07-31T05:59:47;99178.28;;;21.14;63.03
78117;BME280;69042;59.120;37.904;2023-07-31T06:02:14;99173.63;;;21.16;62.81
78117;BME280;69042;59.120;37.904;2023-07-31T06:04:40;99170.69;;;21.19;62.56
78117;BME280;69042;59.120;37.904;2023-07-31T06:07:06;99171.66;;;21.18;62.53
78117;BME280;69042;59.120;37.904;2023-07-31T06:09:33;99177.81;;;21.18;62.28
78117;BME280;69042;59.120;37.904;2023-07-31T06:11:59;99173.16;;;21.20;62.39
78117;BME280;69042;59.120;37.904;2023-07-31T06:14:25;99172.88;;;21.24;62.28
78117;BME280;69042;59.120;37.904;2023-07-31T06:16:52;99173.56;;;21.26;62.00
78117;BME280;69042;59.120;37.904;2023-07-31T06:19:18;99168.88;;;21.28;61.89
78117;BME280;69042;59.120;37.904;2023-07-31T06:21:46;99162.28;;;21.32;61.90
78117;BME280;69042;59.120;37.904;2023-07-31T06:24:12;99173.13;;;21.38;61.70
78117;BME280;69042;59.120;37.904;2023-07-31T06:26:39;99171.84;;;21.42;61.50
78117;BME280;69042;59.120;37.904;2023-07-31T06:29:05;99176.00;;;21.45;61.66
78117;BME280;69042;59.120;37.904;2023-07-31T06:31:32;99175.53;;;21.50;61.24
78117;BME280;69042;59.120;37.904;2023-07-31T06:33:58;99167.41;;;21.51;61.46
78117;BME280;69042;59.120;37.904;2023-07-31T06:36:24;99171.44;;;21.63;61.28
78117;BME280;69042;59.120;37.904;2023-07-31T06:38:51;99170.34;;;21.74;61.26
78117;BME280;69042;59.120;37.904;2023-07-31T06:41:17;99175.03;;;21.80;60.99
78117;BME280;69042;59.120;37.904;2023-07-31T06:43:43;99177.88;;;21.87;60.89
78117;BME280;69042;59.120;37.904;2023-07-31T06:46:09;99180.56;;;21.87;60.75
78117;BME280;69042;59.120;37.904;2023-07-31T06:48:36;99189.50;;;21.86;60.94
78117;BME280;69042;59.120;37.904;2023-07-31T06:51:03;99180.22;;;21.90;60.97
78117;BME280;69042;59.120;37.904;2023-07-31T06:53:29;99180.75;;;21.94;60.72
78117;BME280;69042;59.120;37.904;2023-07-31T06:55:56;99186.56;;;21.97;60.33
78117;BME280;69042;59.120;37.904;2023-07-31T06:58:22;99183.41;;;22.02;60.24
78117;BME280;69042;59.120;37.904;2023-07-31T07:00:48;99176.78;;;22.06;59.92
78117;BME280;69042;59.120;37.904;2023-07-31T07:03:18;99179.81;;;22.11;59.85
78117;BME280;69042;59.120;37.904;2023-07-31T07:05:44;99181.66;;;22.19;59.88
78117;BME280;69042;59.120;37.904;2023-07-31T07:08:11;99180.72;;;22.28;59.59
78117;BME280;69042;59.120;37.904;2023-07-31T07:10:37;99175.53;;;22.27;59.37
78117;BME280;69042;59.120;37.904;2023-07-31T07:13:04;99189.88;;;22.34;59.18
78117;BME280;69042;59.120;37.904;2023-07-31T07:15:30;99190.22;;;22.39;58.88
78117;BME280;69042;59.120;37.904;2023-07-31T07:17:56;99187.03;;;22.35;58.66
78117;BME280;69042;59.120;37.904;2023-07-31T07:20:23;99193.72;;;22.39;58.99
78117;BME280;69042;59.120;37.904;2023-07-31T07:22:49;99187.75;;;22.45;58.82
78117;BME280;69042;59.120;37.904;2023-07-31T07:25:15;99186.91;;;22.53;59.30
78117;BME280;69042;59.120;37.904;2023-07-31T07:27:42;99188.94;;;22.68;58.85
78117;BME280;69042;59.120;37.904;2023-07-31T07:30:09;99195.59;;;22.80;58.35
78117;BME280;69042;59.120;37.904;2023-07-31T07:32:35;99193.78;;;22.89;58.48
78117;BME280;69042;59.120;37.904;2023-07-31T07:35:01;99192.78;;;22.98;57.99
78117;BME280;69042;59.120;37.904;2023-07-31T07:37:28;99185.59;;;22.98;57.67
78117;BME280;69042;59.120;37.904;2023-07-31T07:39:54;99187.31;;;22.99;57.86
78117;BME280;69042;59.120;37.904;2023-07-31T07:42:20;99191.94;;;23.05;58.00
78117;BME280;69042;59.120;37.904;2023-07-31T07:44:46;99195.63;;;23.13;57.93
78117;BME280;69042;59.120;37.904;2023-07-31T07:47:13;99196.28;;;23.23;57.78
78117;BME280;69042;59.120;37.904;2023-07-31T07:49:39;99199.59;;;23.25;57.63
78117;BME280;69042;59.120;37.904;2023-07-31T07:52:06;99197.97;;;23.24;56.82
78117;BME280;69042;59.120;37.904;2023-07-31T07:54:32;99212.94;;;23.25;57.16
78117;BME280;69042;59.120;37.904;2023-07-31T07:56:59;99208.44;;;23.25;56.83
78117;BME280;69042;59.120;37.904;2023-07-31T07:59:25;99212.94;;;23.25;56.70
78117;BME280;69042;59.120;37.904;2023-07-31T08:01:51;99203.59;;;23.21;56.34
78117;BME280;69042;59.120;37.904;2023-07-31T08:04:18;99206.09;;;23.14;56.62
78117;BME280;69042;59.120;37.904;2023-07-31T08:06:44;99208.28;;;23.11;56.89
78117;BME280;69042;59.120;37.904;2023-07-31T08:09:10;99201.78;;;23.13;56.55
78117;BME280;69042;59.120;37.904;2023-07-31T08:11:37;99212.94;;;23.17;56.83
78117;BME280;69042;59.120;37.904;2023-07-31T08:14:03;99218.41;;;23.23;56.77
78117;BME280;69042;59.120;37.904;2023-07-31T08:16:29;99213.59;;;23.27;56.55
78117;BME280;69042;59.120;37.904;2023-07-31T08:18:56;99208.09;;;23.28;55.90
78117;BME280;69042;59.120;37.904;2023-07-31T08:21:22;99215.09;;;23.30;56.03
78117;BME280;69042;59.120;37.904;2023-07-31T08:23:49;99215.09;;;23.30;55.65
78117;BME280;69042;59.120;37.904;2023-07-31T08:26:16;99218.78;;;23.28;55.86
78117;BME280;69042;59.120;37.904;2023-07-31T08:28:43;99221.09;;;23.23;55.74
78117;BME280;69042;59.120;37.904;2023-07-31T08:31:09;99213.94;;;23.16;55.94
78117;BME280;69042;59.120;37.904;2023-07-31T08:33:37;99211.44;;;23.22;56.49
78117;BME280;69042;59.120;37.904;2023-07-31T08:36:04;99224.94;;;23.37;56.28
78117;BME280;69042;59.120;37.904;2023-07-31T08:38:30;99218.38;;;23.48;56.14
78117;BME280;69042;59.120;37.904;2023-07-31T08:40:57;99213.56;;;23.52;55.77
78117;BME280;69042;59.120;37.904;2023-07-31T08:43:26;99215.22;;;23.61;55.20
78117;BME280;69042;59.120;37.904;2023-07-31T08:45:52;99216.84;;;23.70;55.91
78117;BME280;69042;59.120;37.904;2023-07-31T08:48:21;99216.38;;;23.75;55.28
78117;BME280;69042;59.120;37.904;2023-07-31T08:50:52;99214.19;;;23.78;55.31
78117;BME280;69042;59.120;37.904;2023-07-31T08:53:19;99217.34;;;23.82;55.00
78117;BME280;69042;59.120;37.904;2023-07-31T08:55:46;99214.81;;;23.88;54.71
78117;BME280;69042;59.120;37.904;2023-07-31T08:58:13;99219.44;;;24.03;55.04
78117;BME280;69042;59.120;37.904;2023-07-31T09:00:42;99207.19;;;24.17;54.94
78117;BME280;69042;59.120;37.904;2023-07-31T09:03:15;99216.59;;;24.36;53.97
78117;BME280;69042;59.120;37.904;2023-07-31T09:05:43;99213.22;;;24.42;53.66
78117;BME280;69042;59.120;37.904;2023-07-31T09:08:12;99208.25;;;24.39;53.04
78117;BME280;69042;59.120;37.904;2023-07-31T09:10:42;99210.41;;;24.43;53.19
78117;BME280;69042;59.120;37.904;2023-07-31T09:13:09;99212.94;;;24.37;52.76
78117;BME280;69042;59.120;37.904;2023-07-31T09:15:36;99213.34;;;24.25;52.75
78117;BME280;69042;59.120;37.904;2023-07-31T09:18:05;99214.53;;;24.23;53.01
78117;BME280;69042;59.120;37.904;2023-07-31T09:20:32;99216.34;;;24.22;52.97
78117;BME280;69042;59.120;37.904;2023-07-31T09:23:13;99212.53;;;24.17;52.69
78117;BME280;69042;59.120;37.904;2023-07-31T09:25:43;99204.00;;;24.21;52.96
78117;BME280;69042;59.120;37.904;2023-07-31T09:28:11;99214.94;;;24.35;52.72
78117;BME280;69042;59.120;37.904;2023-07-31T09:30:58;99210.84;;;24.47;52.25
78117;BME280;69042;59.120;37.904;2023-07-31T09:33:24;99215.16;;;24.56;52.72
78117;BME280;69042;59.120;37.904;2023-07-31T09:35:50;99212.47;;;24.64;52.19
78117;BME280;69042;59.120;37.904;2023-07-31T09:38:17;99214.44;;;24.70;51.48
78117;BME280;69042;59.120;37.904;2023-07-31T09:40:52;99219.66;;;24.64;51.08
78117;BME280;69042;59.120;37.904;2023-07-31T09:43:20;99214.72;;;24.52;51.50
78117;BME280;69042;59.120;37.904;2023-07-31T09:45:47;99208.56;;;24.44;51.52
78117;BME280;69042;59.120;37.904;2023-07-31T09:48:18;99216.28;;;24.39;51.16
78117;BME280;69042;59.120;37.904;2023-07-31T09:50:46;99219.28;;;24.36;51.31
78117;BME280;69042;59.120;37.904;2023-07-31T09:53:13;99226.31;;;24.28;51.03
78117;BME280;69042;59.120;37.904;2023-07-31T09:55:40;99215.69;;;24.20;51.21
78117;BME280;69042;59.120;37.904;2023-07-31T09:58:08;99224.41;;;24.14;51.06
78117;BME280;69042;59.120;37.904;2023-07-31T10:00:36;99221.59;;;24.07;51.34
78117;BME280;69042;59.120;37.904;2023-07-31T10:03:08;99214.44;;;24.00;51.70
78117;BME280;69042;59.120;37.904;2023-07-31T10:05:40;99216.06;;;24.09;51.63
78117;BME280;69042;59.120;37.904;2023-07-31T10:08:10;99220.19;;;24.20;51.71
78117;BME280;69042;59.120;37.904;2023-07-31T10:10:41;99226.69;;;24.25;51.86
78117;BME280;69042;59.120;37.904;2023-07-31T10:13:09;99227.00;;;24.22;51.87
78117;BME280;69042;59.120;37.904;2023-07-31T10:15:36;99230.56;;;24.15;51.81
78117;BME280;69042;59.120;37.904;2023-07-31T10:18:05;99228.75;;;24.07;52.18
78117;BME280;69042;59.120;37.904;2023-07-31T10:20:32;99224.78;;;24.03;51.76
78117;BME280;69042;59.120;37.904;2023-07-31T10:23:00;99222.13;;;24.03;51.89
78117;BME280;69042;59.120;37.904;2023-07-31T10:25:27;99228.56;;;24.08;52.43
78117;BME280;69042;59.120;37.904;2023-07-31T10:27:54;99236.25;;;24.12;52.38
78117;BME280;69042;59.120;37.904;2023-07-31T10:30:22;99237.38;;;24.17;51.87
78117;BME280;69042;59.120;37.904;2023-07-31T10:32:51;99243.03;;;24.22;52.42
78117;BME280;69042;59.120;37.904;2023-07-31T10:35:18;99244.84;;;24.30;52.25
78117;BME280;69042;59.120;37.904;2023-07-31T10:37:44;99243.31;;;24.36;52.72
78117;BME280;69042;59.120;37.904;2023-07-31T10:40:12;99247.13;;;24.41;52.76
78117;BME280;69042;59.120;37.904;2023-07-31T10:42:49;99246.41;;;24.56;52.53
78117;BME280;69042;59.120;37.904;2023-07-31T10:45:37;99244.50;;;24.87;53.11
78117;BME280;69042;59.120;37.904;2023-07-31T10:48:05;99244.63;;;25.17;52.98
78117;BME280;69042;59.120;37.904;2023-07-31T10:50:36;99234.59;;;25.42;52.34
78117;BME280;69042;59.120;37.904;2023-07-31T10:53:03;99238.38;;;25.63;51.89
78117;BME280;69042;59.120;37.904;2023-07-31T10:55:30;99241.53;;;25.81;51.23
78117;BME280;69042;59.120;37.904;2023-07-31T10:58:20;99240.44;;;26.05;50.83
78117;BME280;69042;59.120;37.904;2023-07-31T11:00:47;99233.22;;;26.21;50.53
78117;BME280;69042;59.120;37.904;2023-07-31T11:03:17;99229.59;;;26.28;49.92
78117;BME280;69042;59.120;37.904;2023-07-31T11:05:52;99232.22;;;26.22;49.68
78117;BME280;69042;59.120;37.904;2023-07-31T11:08:35;99236.66;;;26.14;49.87
78117;BME280;69042;59.120;37.904;2023-07-31T11:13:40;99236.41;;;25.94;50.01
78117;BME280;69042;59.120;37.904;2023-07-31T11:16:07;99238.19;;;25.79;49.82
78117;BME280;69042;59.120;37.904;2023-07-31T11:18:34;99249.19;;;25.69;49.93
78117;BME280;69042;59.120;37.904;2023-07-31T11:21:00;99245.28;;;25.57;49.55
78117;BME280;69042;59.120;37.904;2023-07-31T11:23:27;99250.63;;;25.42;49.70
78117;BME280;69042;59.120;37.904;2023-07-31T11:25:59;99247.16;;;25.19;49.89
78117;BME280;69042;59.120;37.904;2023-07-31T11:28:26;99255.28;;;25.02;50.00
78117;BME280;69042;59.120;37.904;2023-07-31T11:30:52;99246.66;;;24.92;50.22
78117;BME280;69042;59.120;37.904;2023-07-31T11:33:18;99239.66;;;24.91;50.30
78117;BME280;69042;59.120;37.904;2023-07-31T11:35:48;99236.03;;;24.84;50.99
78117;BME280;69042;59.120;37.904;2023-07-31T11:40:53;99239.47;;;24.69;50.73
78117;BME280;69042;59.120;37.904;2023-07-31T11:43:20;99245.41;;;24.57;51.03
78117;BME280;69042;59.120;37.904;2023-07-31T11:45:48;99233.41;;;24.52;51.10
78117;BME280;69042;59.120;37.904;2023-07-31T11:48:19;99244.75;;;24.55;51.45
78117;BME280;69042;59.120;37.904;2023-07-31T11:50:45;99240.47;;;24.68;51.88
78117;BME280;69042;59.120;37.904;2023-07-31T11:53:13;99242.38;;;24.83;52.17
78117;BME280;69042;59.120;37.904;2023-07-31T11:55:40;99243.97;;;24.92;52.58
78117;BME280;69042;59.120;37.904;2023-07-31T11:58:06;99243.28;;;24.98;52.65
78117;BME280;69042;59.120;37.904;2023-07-31T12:00:32;99250.38;;;25.06;52.92
78117;BME280;69042;59.120;37.904;2023-07-31T12:02:59;99245.81;;;25.14;52.49
78117;BME280;69042;59.120;37.904;2023-07-31T12:05:25;99253.91;;;25.29;53.10
78117;BME280;69042;59.120;37.904;2023-07-31T12:07:54;99248.88;;;25.49;52.76
78117;BME280;69042;59.120;37.904;2023-07-31T12:10:29;99253.34;;;25.72;52.84
78117;BME280;69042;59.120;37.904;2023-07-31T12:13:07;99247.94;;;26.10;52.82
78117;BME280;69042;59.120;37.904;2023-07-31T12:15:41;99246.16;;;26.68;52.00
78117;BME280;69042;59.120;37.904;2023-07-31T12:18:09;99249.41;;;27.28;51.71
78117;BME280;69042;59.120;37.904;2023-07-31T12:20:44;99240.84;;;28.02;50.62
78117;BME280;69042;59.120;37.904;2023-07-31T12:23:19;99234.94;;;29.02;49.51
78117;BME280;69042;59.120;37.904;2023-07-31T12:26:20;99243.75;;;30.16;47.39
78117;BME280;69042;59.120;37.904;2023-07-31T12:28:48;99242.34;;;30.97;45.78
78117;BME280;69042;59.120;37.904;2023-07-31T12:31:20;99239.19;;;31.50;44.43
78117;BME280;69042;59.120;37.904;2023-07-31T12:33:48;99236.09;;;31.71;42.59
78117;BME280;69042;59.120;37.904;2023-07-31T12:36:17;99242.63;;;31.82;42.06
78117;BME280;69042;59.120;37.904;2023-07-31T12:38:44;99235.94;;;31.85;40.81
78117;BME280;69042;59.120;37.904;2023-07-31T12:41:11;99235.91;;;32.10;41.09
78117;BME280;69042;59.120;37.904;2023-07-31T12:43:39;99240.06;;;32.73;40.31
78117;BME280;69042;59.120;37.904;2023-07-31T12:46:06;99235.59;;;33.21;39.15
78117;BME280;69042;59.120;37.904;2023-07-31T12:48:37;99239.75;;;33.47;38.94
78117;BME280;69042;59.120;37.904;2023-07-31T12:51:04;99235.31;;;33.64;38.15
78117;BME280;69042;59.120;37.904;2023-07-31T12:53:31;99229.97;;;33.81;37.37
78117;BME280;69042;59.120;37.904;2023-07-31T12:55:57;99232.78;;;33.98;37.51
78117;BME280;69042;59.120;37.904;2023-07-31T12:58:23;99238.38;;;34.32;37.19
78117;BME280;69042;59.120;37.904;2023-07-31T13:00:50;99247.47;;;34.83;36.42
78117;BME280;69042;59.120;37.904;2023-07-31T13:03:16;99236.66;;;35.34;35.79